createdAt,value
2018-05-17T00:01:57.840Z,17.10
2018-05-17T00:04:27.665Z,17.10
2018-05-17T00:06:53.983Z,17.10
2018-05-17T00:09:20.726Z,17.20
2018-05-17T00:11:50.594Z,17.20
2018-05-17T00:14:16.838Z,17.30
2018-05-17T00:16:44.749Z,17.20
2018-05-17T00:19:10.955Z,17.30
2018-05-17T00:21:41.157Z,17.20
2018-05-17T00:24:07.426Z,17.20
2018-05-17T00:26:34.275Z,17.20
2018-05-17T00:29:02.643Z,17.20
2018-05-17T00:31:29.659Z,17.20
2018-05-17T00:33:56.415Z,17.30
2018-05-17T00:36:22.661Z,17.30
2018-05-17T00:38:53.568Z,17.20
2018-05-17T00:41:19.825Z,17.20
2018-05-17T00:43:49.372Z,17.30
2018-05-17T00:46:16.979Z,17.30
2018-05-17T00:48:45.976Z,17.30
2018-05-17T00:51:12.274Z,17.30
2018-05-17T00:53:45.242Z,17.30
2018-05-17T00:56:13.785Z,17.30
2018-05-17T00:58:40.102Z,17.30
2018-05-17T01:01:09.794Z,17.20
2018-05-17T01:03:37.752Z,17.20
2018-05-17T01:06:16.189Z,17.10
2018-05-17T01:08:45.113Z,17.10
2018-05-17T01:11:12.360Z,17.10
2018-05-17T01:13:40.028Z,17.10
2018-05-17T01:16:08.409Z,17.10
2018-05-17T01:18:35.752Z,17.00
2018-05-17T01:21:06.420Z,17.00
2018-05-17T01:23:37.123Z,17.10
2018-05-17T01:26:05.172Z,17.00
2018-05-17T01:28:33.969Z,17.10
2018-05-17T01:31:01.405Z,17.00
2018-05-17T01:33:31.085Z,16.90
2018-05-17T01:36:07.656Z,16.80
2018-05-17T01:41:20.704Z,16.80
2018-05-17T01:43:47.762Z,16.80
2018-05-17T01:46:19.232Z,16.70
2018-05-17T01:48:46.424Z,16.70
2018-05-17T01:51:12.643Z,16.70
2018-05-17T01:53:38.884Z,16.80
2018-05-17T01:56:05.152Z,16.80
2018-05-17T01:58:32.112Z,16.70
2018-05-17T02:00:58.341Z,16.70
2018-05-17T02:03:25.502Z,16.70
2018-05-17T02:05:51.697Z,16.70
2018-05-17T02:08:18.635Z,16.70
2018-05-17T02:10:44.896Z,16.70
2018-05-17T02:13:11.101Z,16.70
2018-05-17T02:15:38.072Z,16.60
2018-05-17T02:18:04.237Z,16.60
2018-05-17T02:20:30.480Z,16.60
2018-05-17T02:22:57.572Z,16.60
2018-05-17T02:25:24.624Z,16.60
2018-05-17T02:27:50.856Z,16.60
2018-05-17T02:30:17.104Z,16.60
2018-05-17T02:32:43.304Z,16.60
2018-05-17T02:35:10.237Z,16.60
2018-05-17T02:37:37.178Z,16.60
2018-05-17T02:40:04.229Z,16.60
2018-05-17T02:45:22.975Z,16.40
2018-05-17T02:47:49.167Z,16.40
2018-05-17T02:50:15.902Z,16.40
2018-05-17T02:52:42.703Z,16.20
2018-05-17T02:55:09.026Z,16.20
2018-05-17T02:57:35.347Z,15.90
2018-05-17T03:00:01.525Z,15.90
2018-05-17T03:02:27.747Z,15.90
2018-05-17T03:04:54.000Z,15.90
2018-05-17T03:07:21.042Z,15.90
2018-05-17T03:09:47.252Z,15.90
2018-05-17T03:12:14.172Z,15.90
2018-05-17T03:14:40.370Z,15.80
2018-05-17T03:26:52.601Z,15.90
2018-05-17T03:29:19.582Z,15.80
2018-05-17T03:31:46.407Z,15.80
2018-05-17T03:34:12.662Z,15.80
2018-05-17T03:36:39.854Z,15.80
2018-05-17T03:48:51.126Z,15.70
2018-05-17T03:51:17.319Z,15.60
2018-05-17T03:53:43.531Z,15.50
2018-05-17T03:56:10.453Z,15.60
2018-05-17T03:58:36.771Z,15.50
2018-05-17T04:01:15.566Z,15.50
2018-05-17T04:03:53.847Z,15.40
2018-05-17T04:06:32.383Z,15.40
2018-05-17T04:08:58.714Z,15.60
2018-05-17T04:11:26.260Z,15.60
2018-05-17T04:13:52.469Z,15.60
2018-05-17T04:16:18.695Z,15.60
2018-05-17T04:18:45.003Z,15.40
2018-05-17T04:21:11.188Z,15.30
2018-05-17T04:23:38.844Z,15.40
2018-05-17T04:26:06.402Z,15.40
2018-05-17T04:28:35.454Z,15.50
2018-05-17T04:31:03.697Z,15.60
2018-05-17T04:33:31.497Z,15.70
2018-05-17T04:35:57.696Z,15.70
2018-05-17T04:38:24.922Z,15.70
2018-05-17T04:40:51.139Z,15.60
2018-05-17T04:43:17.344Z,15.60
2018-05-17T04:45:44.590Z,15.60
2018-05-17T04:48:25.713Z,15.70
2018-05-17T04:50:52.904Z,15.60
2018-05-17T04:53:20.679Z,15.50
2018-05-17T04:55:49.720Z,15.50
2018-05-17T04:58:17.517Z,15.50
2018-05-17T05:00:47.194Z,15.50
2018-05-17T05:03:16.120Z,15.50
2018-05-17T05:05:47.400Z,15.30
2018-05-17T05:08:18.069Z,15.10
2018-05-17T05:10:46.904Z,15.10
2018-05-17T05:13:14.660Z,15.10
2018-05-17T05:15:42.496Z,15.20
2018-05-17T05:18:13.634Z,15.20
2018-05-17T05:20:42.836Z,15.30
2018-05-17T05:23:10.315Z,15.40
2018-05-17T05:25:38.842Z,15.40
2018-05-17T05:28:10.088Z,15.40
2018-05-17T05:30:39.157Z,15.50
2018-05-17T05:33:06.387Z,15.50
2018-05-17T05:35:33.353Z,16.10
2018-05-17T05:38:00.894Z,16.30
2018-05-17T05:40:30.528Z,16.50
2018-05-17T05:42:56.750Z,16.50
2018-05-17T05:45:25.146Z,16.60
2018-05-17T05:47:51.623Z,16.50
2018-05-17T05:50:18.605Z,16.30
2018-05-17T05:52:47.526Z,16.00
2018-05-17T05:55:13.716Z,16.00
2018-05-17T05:57:41.281Z,16.10
2018-05-17T06:00:08.302Z,15.90
2018-05-17T06:02:35.325Z,15.90
2018-05-17T06:05:02.786Z,15.90
2018-05-17T06:07:31.673Z,16.10
2018-05-17T06:09:59.036Z,16.10
2018-05-17T06:12:28.682Z,16.20
2018-05-17T06:14:55.606Z,16.00
2018-05-17T06:17:22.837Z,15.90
2018-05-17T06:19:49.653Z,15.70
2018-05-17T06:22:19.533Z,15.30
2018-05-17T06:24:47.751Z,15.00
2018-05-17T06:27:14.679Z,15.00
2018-05-17T06:29:42.762Z,15.20
2018-05-17T06:32:10.245Z,15.20
2018-05-17T06:34:38.516Z,15.20
2018-05-17T06:37:05.445Z,15.00
2018-05-17T06:39:33.409Z,15.00
2018-05-17T06:42:16.921Z,15.10
2018-05-17T06:44:44.706Z,15.20
2018-05-17T06:47:10.944Z,15.10
2018-05-17T06:49:37.139Z,15.30
2018-05-17T06:52:04.295Z,15.20
2018-05-17T06:54:33.704Z,15.20
2018-05-17T06:57:02.315Z,15.20
2018-05-17T06:59:35.466Z,15.20
2018-05-17T07:02:03.565Z,15.20
2018-05-17T07:04:33.268Z,14.90
2018-05-17T07:07:04.109Z,14.80
2018-05-17T07:09:32.084Z,14.90
2018-05-17T07:12:00.919Z,15.00
2018-05-17T07:14:27.408Z,15.00
2018-05-17T07:16:54.254Z,15.30
2018-05-17T07:19:21.406Z,15.80
2018-05-17T07:21:48.269Z,15.80
2018-05-17T07:24:16.556Z,15.90
2018-05-17T07:26:43.609Z,16.00
2018-05-17T07:29:09.878Z,16.00
2018-05-17T07:31:37.831Z,16.10
2018-05-17T07:36:41.096Z,16.70
2018-05-17T07:39:08.157Z,16.70
2018-05-17T07:41:35.810Z,17.10
2018-05-17T07:44:04.822Z,17.40
2018-05-17T07:46:31.049Z,17.40
2018-05-17T07:48:57.227Z,17.40
2018-05-17T07:51:24.140Z,17.00
2018-05-17T07:53:50.327Z,17.00
2018-05-17T07:56:18.534Z,16.80
2018-05-17T07:58:44.709Z,17.10
2018-05-17T08:01:12.270Z,17.70
2018-05-17T08:03:40.589Z,18.10
2018-05-17T08:06:07.625Z,18.10
2018-05-17T08:08:33.862Z,18.20
2018-05-17T08:11:00.110Z,18.60
2018-05-17T08:13:26.369Z,18.70
2018-05-17T08:15:52.557Z,19.00
2018-05-17T08:18:18.779Z,19.30
2018-05-17T08:20:45.955Z,19.50
2018-05-17T08:23:12.115Z,19.30
2018-05-17T08:25:39.092Z,18.90
2018-05-17T08:28:05.283Z,18.80
2018-05-17T08:30:31.457Z,18.70
2018-05-17T08:32:58.389Z,18.70
2018-05-17T08:35:25.261Z,18.80
2018-05-17T08:37:52.038Z,18.90
2018-05-17T08:40:18.258Z,19.00
2018-05-17T08:42:44.608Z,19.00
2018-05-17T08:45:10.806Z,19.00
2018-05-17T08:47:37.079Z,19.20
2018-05-17T08:50:04.025Z,19.80
2018-05-17T08:52:31.005Z,20.00
2018-05-17T08:54:57.218Z,19.90
2018-05-17T08:57:23.457Z,20.00
2018-05-17T08:59:49.688Z,20.00
2018-05-17T09:02:16.584Z,19.90
2018-05-17T09:04:42.763Z,19.80
2018-05-17T09:07:08.945Z,19.90
2018-05-17T09:09:36.726Z,20.00
2018-05-17T09:12:04.349Z,20.00
2018-05-17T09:14:30.542Z,19.90
2018-05-17T09:16:56.861Z,20.00
2018-05-17T09:19:24.094Z,20.10
2018-05-17T09:21:51.144Z,20.40
2018-05-17T09:24:18.093Z,20.60
2018-05-17T09:26:45.061Z,20.80
2018-05-17T09:29:11.327Z,20.80
2018-05-17T09:31:38.203Z,20.80
2018-05-17T09:34:05.864Z,20.90
2018-05-17T09:36:34.185Z,21.20
2018-05-17T09:39:00.426Z,21.10
2018-05-17T09:41:26.658Z,21.20
2018-05-17T09:43:54.317Z,21.30
2018-05-17T09:46:22.109Z,21.30
2018-05-17T09:48:50.859Z,21.50
2018-05-17T09:51:20.931Z,21.70
2018-05-17T09:53:47.178Z,21.70
2018-05-17T09:56:14.161Z,21.90
2018-05-17T09:58:41.256Z,22.00
2018-05-17T10:01:12.746Z,22.10
2018-05-17T10:03:38.954Z,22.30
2018-05-17T10:06:12.342Z,22.60
2018-05-17T10:08:39.820Z,22.70
2018-05-17T10:11:06.007Z,22.70
2018-05-17T10:13:33.864Z,22.70
2018-05-17T10:16:00.086Z,22.80
2018-05-17T10:18:28.598Z,22.70
2018-05-17T10:20:54.825Z,22.60
2018-05-17T10:23:21.998Z,22.60
2018-05-17T10:25:48.996Z,22.30
2018-05-17T10:28:15.257Z,22.30
2018-05-17T10:30:42.238Z,22.10
2018-05-17T10:33:08.525Z,22.00
2018-05-17T10:35:36.777Z,22.00
2018-05-17T10:38:02.981Z,22.10
2018-05-17T10:40:29.999Z,22.00
2018-05-17T10:42:57.631Z,22.20
2018-05-17T10:45:24.821Z,22.20
2018-05-17T10:47:52.624Z,22.40
2018-05-17T10:50:19.403Z,22.30
2018-05-17T10:52:46.148Z,22.40
2018-05-17T10:55:14.054Z,22.60
2018-05-17T10:57:40.306Z,22.60
2018-05-17T11:00:07.495Z,23.00
2018-05-17T11:02:34.645Z,23.00
2018-05-17T11:05:01.848Z,22.90
2018-05-17T11:07:30.323Z,22.80
2018-05-17T11:09:59.036Z,22.90
2018-05-17T11:12:25.268Z,22.90
2018-05-17T11:14:53.048Z,22.80
2018-05-17T11:17:20.362Z,22.60
2018-05-17T11:19:46.560Z,22.40
2018-05-17T11:22:13.533Z,22.10
2018-05-17T11:24:39.701Z,22.10
2018-05-17T11:27:10.055Z,22.20
2018-05-17T11:29:36.976Z,22.20
2018-05-17T11:32:04.056Z,22.20
2018-05-17T11:34:31.872Z,22.20
2018-05-17T11:36:58.108Z,22.20
2018-05-17T11:39:25.236Z,22.20
2018-05-17T11:41:51.410Z,22.20
2018-05-17T11:44:17.605Z,22.20
2018-05-17T11:46:43.806Z,22.30
2018-05-17T11:49:10.069Z,22.30
2018-05-17T11:51:37.108Z,22.20
2018-05-17T11:54:04.155Z,22.20
2018-05-17T11:56:30.505Z,22.20
2018-05-17T11:58:57.321Z,22.30
2018-05-17T12:01:25.091Z,22.30
2018-05-17T12:03:51.348Z,22.50
2018-05-17T12:06:21.312Z,22.90
2018-05-17T12:08:48.354Z,22.90
2018-05-17T12:11:15.332Z,22.90
2018-05-17T12:13:41.555Z,22.90
2018-05-17T12:16:07.753Z,22.90
2018-05-17T12:18:35.493Z,22.80
2018-05-17T12:21:01.777Z,22.80
2018-05-17T12:23:30.895Z,22.80
2018-05-17T12:25:58.142Z,22.80
2018-05-17T12:28:25.532Z,22.80
2018-05-17T12:30:52.369Z,22.70
2018-05-17T12:33:20.285Z,22.60
2018-05-17T12:35:48.713Z,22.60
2018-05-17T12:38:19.468Z,22.60
2018-05-17T12:40:46.457Z,22.70
2018-05-17T12:43:13.353Z,22.60
2018-05-17T12:45:39.619Z,22.70
2018-05-17T12:48:09.945Z,22.60
2018-05-17T12:50:36.765Z,22.50
2018-05-17T12:53:07.596Z,22.50
2018-05-17T12:55:35.605Z,22.60
2018-05-17T12:58:03.708Z,22.60
2018-05-17T13:00:31.433Z,22.60
2018-05-17T13:02:58.699Z,22.60
2018-05-17T13:05:25.276Z,22.60
2018-05-17T13:07:51.499Z,22.50
2018-05-17T13:10:17.711Z,22.40
2018-05-17T13:12:45.306Z,22.30
2018-05-17T13:15:12.450Z,22.30
2018-05-17T13:17:39.425Z,22.10
2018-05-17T13:20:07.038Z,22.00
2018-05-17T13:22:38.991Z,22.00
2018-05-17T13:25:07.533Z,21.80
2018-05-17T13:27:34.503Z,21.60
2018-05-17T13:30:01.389Z,21.60
2018-05-17T13:32:28.205Z,21.50
2018-05-17T13:34:55.658Z,21.50
2018-05-17T13:37:23.452Z,21.50
2018-05-17T13:39:49.637Z,21.60
2018-05-17T13:42:15.833Z,21.70
2018-05-17T13:44:43.808Z,21.70
2018-05-17T13:47:11.674Z,21.70
2018-05-17T13:49:38.654Z,21.70
2018-05-17T13:52:08.082Z,21.70
2018-05-17T13:54:35.695Z,21.70
2018-05-17T13:57:04.071Z,21.40
2018-05-17T13:59:31.916Z,21.10
2018-05-17T14:02:02.237Z,21.10
2018-05-17T14:04:29.167Z,20.90
2018-05-17T14:06:55.397Z,20.90
2018-05-17T14:09:22.151Z,20.90
2018-05-17T14:11:50.242Z,20.90
2018-05-17T14:14:17.190Z,20.80
2018-05-17T14:16:46.166Z,20.80
2018-05-17T14:19:15.400Z,20.80
2018-05-17T14:21:43.046Z,20.60
2018-05-17T14:24:10.057Z,20.50
2018-05-17T14:26:36.325Z,20.50
2018-05-17T14:29:04.891Z,20.60
2018-05-17T14:31:32.708Z,20.60
2018-05-17T14:34:02.067Z,20.70
2018-05-17T14:36:28.853Z,20.80
2018-05-17T14:38:55.077Z,20.80
2018-05-17T14:41:23.977Z,20.80
2018-05-17T14:43:51.698Z,20.80
2018-05-17T14:46:18.598Z,20.80
2018-05-17T14:48:55.730Z,20.80
2018-05-17T14:51:24.355Z,20.80
2018-05-17T14:53:50.616Z,20.80
2018-05-17T14:56:17.616Z,20.80
2018-05-17T14:58:45.399Z,20.80
2018-05-17T15:01:12.614Z,20.90
2018-05-17T15:03:38.752Z,20.90
2018-05-17T15:06:06.911Z,20.80
2018-05-17T15:08:35.867Z,20.70
2018-05-17T15:11:05.068Z,20.70
2018-05-17T15:13:32.654Z,20.60
2018-05-17T15:16:00.172Z,20.60
2018-05-17T15:18:26.410Z,20.50
2018-05-17T15:20:54.561Z,20.50
2018-05-17T15:23:24.408Z,20.50
2018-05-17T15:25:54.754Z,20.50
2018-05-17T15:28:22.403Z,20.50
2018-05-17T15:30:49.812Z,20.50
2018-05-17T15:33:17.871Z,20.50
2018-05-17T15:35:45.682Z,20.50
2018-05-17T15:38:12.891Z,20.50
2018-05-17T15:40:41.684Z,20.50
2018-05-17T15:43:10.174Z,20.40
2018-05-17T15:45:36.480Z,20.40
2018-05-17T15:48:04.051Z,20.40
2018-05-17T15:50:31.225Z,20.40
2018-05-17T15:52:58.878Z,20.40
2018-05-17T15:55:26.105Z,20.30
2018-05-17T15:57:56.152Z,20.30
2018-05-17T16:00:22.385Z,20.30
2018-05-17T16:02:50.761Z,20.30
2018-05-17T16:05:16.983Z,20.20
2018-05-17T16:07:43.961Z,20.10
2018-05-17T16:10:10.252Z,20.10
2018-05-17T16:12:37.891Z,20.00
2018-05-17T16:15:04.505Z,20.00
2018-05-17T16:17:31.498Z,20.00
2018-05-17T16:19:58.522Z,19.80
2018-05-17T16:22:26.321Z,19.80
2018-05-17T16:24:52.605Z,19.80
2018-05-17T16:27:19.907Z,19.80
2018-05-17T16:29:47.012Z,19.70
2018-05-17T16:32:13.244Z,19.60
2018-05-17T16:34:40.099Z,19.70
2018-05-17T16:37:07.059Z,19.60
2018-05-17T16:39:34.024Z,19.60
2018-05-17T16:42:00.810Z,19.50
2018-05-17T16:44:27.192Z,19.50
2018-05-17T16:46:54.156Z,19.40
2018-05-17T16:49:20.449Z,19.40
2018-05-17T16:51:47.425Z,19.30
2018-05-17T16:54:15.435Z,19.30
2018-05-17T16:56:44.411Z,19.30
2018-05-17T16:59:10.684Z,19.30
2018-05-17T17:01:37.565Z,19.30
2018-05-17T17:04:03.785Z,19.30
2018-05-17T17:06:30.020Z,19.30
2018-05-17T17:08:56.361Z,19.30
2018-05-17T17:11:23.200Z,19.20
2018-05-17T17:13:49.509Z,19.20
2018-05-17T17:16:17.072Z,19.10
2018-05-17T17:18:44.002Z,19.10
2018-05-17T17:21:10.244Z,19.10
2018-05-17T17:23:37.228Z,19.00
2018-05-17T17:26:03.468Z,19.00
2018-05-17T17:28:29.822Z,19.00
2018-05-17T17:30:57.025Z,19.00
2018-05-17T17:33:23.224Z,19.00
2018-05-17T17:35:50.196Z,18.90
2018-05-17T17:38:17.041Z,18.90
2018-05-17T17:40:49.391Z,18.90
2018-05-17T17:43:16.377Z,19.00
2018-05-17T17:45:42.706Z,19.00
2018-05-17T17:48:09.085Z,18.90
2018-05-17T17:50:35.298Z,18.90
2018-05-17T17:53:01.537Z,18.90
2018-05-17T17:55:27.753Z,18.90
2018-05-17T17:57:53.998Z,18.90
2018-05-17T18:00:20.268Z,18.90
2018-05-17T18:02:46.487Z,18.90
2018-05-17T18:05:13.555Z,18.80
2018-05-17T18:07:39.685Z,18.70
2018-05-17T18:10:05.911Z,18.80
2018-05-17T18:12:32.179Z,18.80
2018-05-17T18:14:58.327Z,18.90
2018-05-17T18:17:24.622Z,18.80
2018-05-17T18:19:51.706Z,18.80
2018-05-17T18:22:19.412Z,18.80
2018-05-17T18:24:47.666Z,18.80
2018-05-17T18:27:15.876Z,18.80
2018-05-17T18:29:42.135Z,18.80
2018-05-17T18:32:09.959Z,18.90
2018-05-17T18:34:36.305Z,18.90
2018-05-17T18:37:06.590Z,18.90
2018-05-17T18:39:34.189Z,18.80
2018-05-17T18:42:01.111Z,18.70
2018-05-17T18:44:29.275Z,18.70
2018-05-17T18:46:56.255Z,18.60
2018-05-17T18:49:22.508Z,18.60
2018-05-17T18:51:49.759Z,18.50
2018-05-17T18:54:16.977Z,18.50
2018-05-17T18:56:43.210Z,18.50
2018-05-17T18:59:13.052Z,18.30
2018-05-17T19:01:40.178Z,18.30
2018-05-17T19:04:09.075Z,18.30
2018-05-17T19:06:35.378Z,18.30
2018-05-17T19:09:06.402Z,18.30
2018-05-17T19:11:36.306Z,18.30
2018-05-17T19:14:04.202Z,18.20
2018-05-17T19:16:32.929Z,18.30
2018-05-17T19:18:59.161Z,18.30
2018-05-17T19:21:25.439Z,18.30
2018-05-17T19:23:52.425Z,18.20
2018-05-17T19:26:18.769Z,18.20
2018-05-17T19:28:45.041Z,18.10
2018-05-17T19:31:12.485Z,18.10
2018-05-17T19:33:39.518Z,18.10
2018-05-17T19:36:05.801Z,18.10
2018-05-17T19:38:32.042Z,18.10
2018-05-17T19:40:58.293Z,18.00
2018-05-17T19:43:25.448Z,18.00
2018-05-17T19:45:55.808Z,18.00
2018-05-17T19:48:23.002Z,18.00
2018-05-17T19:50:49.262Z,18.00
2018-05-17T19:53:15.524Z,18.00
2018-05-17T19:55:42.516Z,17.90
2018-05-17T19:58:11.077Z,17.90
2018-05-17T20:00:37.874Z,17.90
2018-05-17T20:03:05.222Z,17.80
2018-05-17T20:05:31.578Z,17.80
2018-05-17T20:07:59.515Z,17.90
2018-05-17T20:10:28.594Z,17.90
2018-05-17T20:12:54.854Z,17.90
2018-05-17T20:15:21.164Z,17.90
2018-05-17T20:17:47.368Z,17.90
2018-05-17T20:20:28.604Z,17.80
2018-05-17T20:22:54.820Z,17.80
2018-05-17T20:25:21.072Z,17.90
2018-05-17T20:27:47.813Z,15.90
2018-05-17T20:30:14.605Z,17.90
2018-05-17T20:32:41.652Z,17.90
2018-05-17T20:35:12.166Z,18.10
2018-05-17T20:37:41.189Z,17.70
2018-05-17T20:40:10.045Z,17.50
2018-05-17T20:42:38.845Z,17.20
2018-05-17T20:45:08.974Z,17.10
2018-05-17T20:47:37.756Z,17.10
2018-05-17T20:50:06.189Z,17.00
2018-05-17T20:52:34.202Z,17.00
2018-05-17T20:57:54.045Z,16.80
2018-05-17T21:00:21.163Z,16.80
2018-05-17T21:02:47.400Z,16.80
2018-05-17T21:05:16.596Z,16.80
2018-05-17T21:07:51.352Z,16.80
2018-05-17T21:10:18.539Z,16.70
2018-05-17T21:12:46.428Z,16.70
2018-05-17T21:15:17.076Z,16.60
2018-05-17T21:17:44.949Z,16.60
2018-05-17T21:20:13.517Z,16.60
2018-05-17T21:22:43.240Z,16.50
2018-05-17T21:25:09.447Z,16.40
2018-05-17T21:27:36.363Z,16.40
2018-05-17T21:30:06.246Z,16.40
2018-05-17T21:32:34.060Z,16.40
2018-05-17T21:35:01.761Z,16.30
2018-05-17T21:37:29.524Z,16.30
2018-05-17T21:39:55.768Z,16.30
2018-05-17T21:42:21.989Z,16.30
2018-05-17T21:44:48.346Z,16.30
2018-05-17T21:47:16.034Z,16.20
2018-05-17T21:49:43.362Z,16.30
2018-05-17T21:52:10.290Z,16.20
2018-05-17T21:54:37.066Z,16.10
2018-05-17T21:57:03.438Z,16.10
2018-05-17T21:59:30.967Z,16.10
2018-05-17T22:01:58.925Z,15.90
2018-05-17T22:04:28.274Z,15.90
2018-05-17T22:06:57.918Z,15.90
2018-05-17T22:09:25.683Z,15.90
2018-05-17T22:12:01.487Z,15.90
2018-05-17T22:14:28.584Z,15.90
2018-05-17T22:16:55.791Z,15.90
2018-05-17T22:19:23.573Z,15.90
2018-05-17T22:21:56.920Z,15.90
2018-05-17T22:24:24.593Z,15.90
2018-05-17T22:26:56.183Z,15.80
2018-05-17T22:29:24.382Z,15.80
2018-05-17T22:31:50.579Z,15.80
2018-05-17T22:34:18.258Z,15.80
2018-05-17T22:36:46.887Z,15.80
2018-05-17T22:39:13.064Z,15.70
2018-05-17T22:41:39.812Z,15.70
2018-05-17T22:44:07.063Z,15.60
2018-05-17T22:46:33.850Z,15.60
2018-05-17T22:49:00.977Z,15.50
2018-05-17T22:51:27.201Z,15.50
2018-05-17T22:53:53.380Z,15.50
2018-05-17T22:56:33.654Z,15.50
2018-05-17T22:59:01.348Z,15.50
2018-05-17T23:01:27.529Z,15.50
2018-05-17T23:03:54.458Z,15.40
2018-05-17T23:06:20.753Z,15.30
2018-05-17T23:08:47.500Z,15.40
2018-05-17T23:11:13.745Z,15.40
2018-05-17T23:13:40.721Z,15.10
2018-05-17T23:16:07.636Z,15.20
2018-05-17T23:18:35.250Z,15.20
2018-05-17T23:21:02.032Z,15.20
2018-05-17T23:23:28.298Z,15.10
2018-05-17T23:25:55.294Z,15.10
2018-05-17T23:28:21.498Z,15.10
2018-05-17T23:30:48.728Z,15.10
2018-05-17T23:33:16.305Z,15.10
2018-05-17T23:35:42.514Z,15.10
2018-05-17T23:38:09.477Z,15.00
2018-05-17T23:41:09.474Z,15.00
2018-05-17T23:43:36.454Z,14.90
2018-05-17T23:46:02.755Z,14.80
2018-05-17T23:48:31.283Z,14.80
2018-05-17T23:50:58.253Z,14.80
2018-05-17T23:53:24.507Z,14.80
2018-05-17T23:55:52.089Z,14.80
2018-05-17T23:58:19.633Z,14.90
